sensor_id;sensor_type;location;lat;lon;timestamp;temperature;humidity
37560;DHT22;23398;50.928;7.084;2022-12-11T00:01:09;5.30;70.70
37560;DHT22;23398;50.928;7.084;2022-12-11T00:03:35;5.40;70.80
37560;DHT22;23398;50.928;7.084;2022-12-11T00:06:07;5.30;70.60
37560;DHT22;23398;50.928;7.084;2022-12-11T00:08:33;5.30;70.50
37560;DHT22;23398;50.928;7.084;2022-12-11T00:10:58;5.30;70.50
37560;DHT22;23398;50.928;7.084;2022-12-11T00:13:24;5.30;70.60
37560;DHT22;23398;50.928;7.084;2022-12-11T00:15:49;5.30;70.70
37560;DHT22;23398;50.928;7.084;2022-12-11T00:18:15;5.30;70.70
37560;DHT22;23398;50.928;7.084;2022-12-11T00:20:40;5.30;70.50
37560;DHT22;23398;50.928;7.084;2022-12-11T00:23:06;5.30;70.40
37560;DHT22;23398;50.928;7.084;2022-12-11T00:25:31;5.30;70.40
37560;DHT22;23398;50.928;7.084;2022-12-11T00:27:57;5.30;70.50
37560;DHT22;23398;50.928;7.084;2022-12-11T00:30:23;5.30;70.70
37560;DHT22;23398;50.928;7.084;2022-12-11T00:32:50;5.30;71.00
37560;DHT22;23398;50.928;7.084;2022-12-11T00:35:16;5.30;71.30
37560;DHT22;23398;50.928;7.084;2022-12-11T00:37:41;5.30;71.40
37560;DHT22;23398;50.928;7.084;2022-12-11T00:40:07;5.30;71.50
37560;DHT22;23398;50.928;7.084;2022-12-11T00:42:33;5.30;71.50
37560;DHT22;23398;50.928;7.084;2022-12-11T00:44:59;5.30;71.50
37560;DHT22;23398;50.928;7.084;2022-12-11T00:47:24;5.30;71.50
37560;DHT22;23398;50.928;7.084;2022-12-11T00:49:50;5.30;71.80
37560;DHT22;23398;50.928;7.084;2022-12-11T00:52:15;5.40;72.00
37560;DHT22;23398;50.928;7.084;2022-12-11T00:54:42;5.40;72.10
37560;DHT22;23398;50.928;7.084;2022-12-11T00:57:07;5.40;72.10
37560;DHT22;23398;50.928;7.084;2022-12-11T00:59:33;5.40;72.20
37560;DHT22;23398;50.928;7.084;2022-12-11T01:01:58;5.40;72.20
37560;DHT22;23398;50.928;7.084;2022-12-11T01:04:24;5.40;72.40
37560;DHT22;23398;50.928;7.084;2022-12-11T01:06:49;5.40;72.60
37560;DHT22;23398;50.928;7.084;2022-12-11T01:09:15;5.50;72.90
37560;DHT22;23398;50.928;7.084;2022-12-11T01:11:59;5.50;72.80
37560;DHT22;23398;50.928;7.084;2022-12-11T01:14:25;5.50;72.70
37560;DHT22;23398;50.928;7.084;2022-12-11T01:16:51;5.50;72.80
37560;DHT22;23398;50.928;7.084;2022-12-11T01:19:16;5.50;72.80
37560;DHT22;23398;50.928;7.084;2022-12-11T01:21:42;5.50;73.80
37560;DHT22;23398;50.928;7.084;2022-12-11T01:24:07;5.50;73.00
37560;DHT22;23398;50.928;7.084;2022-12-11T01:26:33;5.60;73.20
37560;DHT22;23398;50.928;7.084;2022-12-11T01:28:58;5.60;73.30
37560;DHT22;23398;50.928;7.084;2022-12-11T01:31:24;5.60;73.20
37560;DHT22;23398;50.928;7.084;2022-12-11T01:33:53;5.60;73.30
37560;DHT22;23398;50.928;7.084;2022-12-11T01:36:20;5.60;73.50
37560;DHT22;23398;50.928;7.084;2022-12-11T01:38:47;5.70;73.70
37560;DHT22;23398;50.928;7.084;2022-12-11T01:41:13;5.60;73.60
37560;DHT22;23398;50.928;7.084;2022-12-11T01:44:04;5.70;73.80
37560;DHT22;23398;50.928;7.084;2022-12-11T01:46:31;5.70;73.90
37560;DHT22;23398;50.928;7.084;2022-12-11T01:48:59;5.70;73.90
37560;DHT22;23398;50.928;7.084;2022-12-11T01:51:26;5.70;74.00
37560;DHT22;23398;50.928;7.084;2022-12-11T01:53:57;5.70;74.10
37560;DHT22;23398;50.928;7.084;2022-12-11T01:56:23;5.70;74.20
37560;DHT22;23398;50.928;7.084;2022-12-11T01:58:54;5.70;74.30
37560;DHT22;23398;50.928;7.084;2022-12-11T02:01:38;5.80;74.30
37560;DHT22;23398;50.928;7.084;2022-12-11T02:04:06;5.80;74.40
37560;DHT22;23398;50.928;7.084;2022-12-11T02:06:41;5.80;74.40
37560;DHT22;23398;50.928;7.084;2022-12-11T02:09:11;5.80;74.40
37560;DHT22;23398;50.928;7.084;2022-12-11T02:14:57;5.80;74.50
37560;DHT22;23398;50.928;7.084;2022-12-11T02:17:31;5.80;74.50
37560;DHT22;23398;50.928;7.084;2022-12-11T02:20:21;5.90;74.60
37560;DHT22;23398;50.928;7.084;2022-12-11T02:33:56;5.80;74.70
37560;DHT22;23398;50.928;7.084;2022-12-11T02:36:25;5.80;74.70
37560;DHT22;23398;50.928;7.084;2022-12-11T02:38:53;5.80;74.70
37560;DHT22;23398;50.928;7.084;2022-12-11T02:41:22;5.80;74.80
37560;DHT22;23398;50.928;7.084;2022-12-11T02:43:50;5.80;74.80
37560;DHT22;23398;50.928;7.084;2022-12-11T02:46:18;5.80;74.90
37560;DHT22;23398;50.928;7.084;2022-12-11T02:48:46;5.80;74.80
37560;DHT22;23398;50.928;7.084;2022-12-11T02:51:15;5.80;74.80
37560;DHT22;23398;50.928;7.084;2022-12-11T02:53:42;6.00;75.90
37560;DHT22;23398;50.928;7.084;2022-12-11T02:56:15;5.90;75.00
37560;DHT22;23398;50.928;7.084;2022-12-11T02:58:53;5.80;74.90
37560;DHT22;23398;50.928;7.084;2022-12-11T03:01:19;5.80;74.70
37560;DHT22;23398;50.928;7.084;2022-12-11T03:03:45;5.90;74.70
37560;DHT22;23398;50.928;7.084;2022-12-11T03:06:15;5.90;74.60
37560;DHT22;23398;50.928;7.084;2022-12-11T03:08:43;5.80;74.60
37560;DHT22;23398;50.928;7.084;2022-12-11T03:11:10;6.00;74.70
37560;DHT22;23398;50.928;7.084;2022-12-11T03:13:37;5.80;74.20
37560;DHT22;23398;50.928;7.084;2022-12-11T03:16:33;5.90;74.30
37560;DHT22;23398;50.928;7.084;2022-12-11T03:19:27;5.80;74.20
37560;DHT22;23398;50.928;7.084;2022-12-11T03:24:54;5.90;74.40
37560;DHT22;23398;50.928;7.084;2022-12-11T03:27:36;5.90;74.40
37560;DHT22;23398;50.928;7.084;2022-12-11T03:30:09;5.90;74.50
37560;DHT22;23398;50.928;7.084;2022-12-11T03:32:49;5.90;74.50
37560;DHT22;23398;50.928;7.084;2022-12-11T03:35:22;5.90;74.50
37560;DHT22;23398;50.928;7.084;2022-12-11T03:37:50;5.90;74.70
37560;DHT22;23398;50.928;7.084;2022-12-11T03:40:19;5.80;74.70
37560;DHT22;23398;50.928;7.084;2022-12-11T03:42:48;5.90;74.90
37560;DHT22;23398;50.928;7.084;2022-12-11T03:45:16;5.80;74.70
37560;DHT22;23398;50.928;7.084;2022-12-11T03:47:44;5.90;74.80
37560;DHT22;23398;50.928;7.084;2022-12-11T03:50:13;5.90;74.90
37560;DHT22;23398;50.928;7.084;2022-12-11T03:52:42;5.90;74.90
37560;DHT22;23398;50.928;7.084;2022-12-11T03:55:10;5.90;74.80
37560;DHT22;23398;50.928;7.084;2022-12-11T03:57:37;5.90;74.80
37560;DHT22;23398;50.928;7.084;2022-12-11T04:00:06;5.90;74.80
37560;DHT22;23398;50.928;7.084;2022-12-11T04:02:32;5.90;74.70
37560;DHT22;23398;50.928;7.084;2022-12-11T04:04:57;5.90;74.80
37560;DHT22;23398;50.928;7.084;2022-12-11T04:07:23;5.90;74.80
37560;DHT22;23398;50.928;7.084;2022-12-11T04:09:48;5.90;74.80
37560;DHT22;23398;50.928;7.084;2022-12-11T04:12:14;5.90;74.80
37560;DHT22;23398;50.928;7.084;2022-12-11T04:14:40;5.90;74.60
37560;DHT22;23398;50.928;7.084;2022-12-11T04:17:24;5.90;74.60
37560;DHT22;23398;50.928;7.084;2022-12-11T04:20:10;5.90;74.50
37560;DHT22;23398;50.928;7.084;2022-12-11T04:23:16;5.90;74.50
37560;DHT22;23398;50.928;7.084;2022-12-11T04:26:09;5.90;74.40
37560;DHT22;23398;50.928;7.084;2022-12-11T04:28:36;5.90;74.50
37560;DHT22;23398;50.928;7.084;2022-12-11T04:31:02;5.90;74.60
37560;DHT22;23398;50.928;7.084;2022-12-11T04:33:28;5.90;74.70
37560;DHT22;23398;50.928;7.084;2022-12-11T04:35:56;5.90;74.70
37560;DHT22;23398;50.928;7.084;2022-12-11T04:38:21;5.90;74.60
37560;DHT22;23398;50.928;7.084;2022-12-11T04:40:47;5.90;74.70
37560;DHT22;23398;50.928;7.084;2022-12-11T04:43:12;5.90;74.70
37560;DHT22;23398;50.928;7.084;2022-12-11T04:45:38;5.90;74.70
37560;DHT22;23398;50.928;7.084;2022-12-11T04:48:03;5.90;74.70
37560;DHT22;23398;50.928;7.084;2022-12-11T04:50:29;5.90;74.60
37560;DHT22;23398;50.928;7.084;2022-12-11T04:52:55;5.90;74.60
37560;DHT22;23398;50.928;7.084;2022-12-11T04:55:22;5.90;74.70
37560;DHT22;23398;50.928;7.084;2022-12-11T04:57:47;5.90;74.60
37560;DHT22;23398;50.928;7.084;2022-12-11T05:00:13;5.90;74.60
37560;DHT22;23398;50.928;7.084;2022-12-11T05:02:40;5.90;74.60
37560;DHT22;23398;50.928;7.084;2022-12-11T05:05:08;5.90;74.60
37560;DHT22;23398;50.928;7.084;2022-12-11T05:07:35;5.90;74.50
37560;DHT22;23398;50.928;7.084;2022-12-11T05:10:01;5.90;74.40
37560;DHT22;23398;50.928;7.084;2022-12-11T05:12:27;5.90;74.40
37560;DHT22;23398;50.928;7.084;2022-12-11T05:14:53;5.90;74.30
37560;DHT22;23398;50.928;7.084;2022-12-11T05:17:20;5.90;74.10
37560;DHT22;23398;50.928;7.084;2022-12-11T05:19:50;6.00;74.20
37560;DHT22;23398;50.928;7.084;2022-12-11T05:22:16;6.00;74.20
37560;DHT22;23398;50.928;7.084;2022-12-11T05:24:42;5.90;74.00
37560;DHT22;23398;50.928;7.084;2022-12-11T05:27:08;6.00;73.30
37560;DHT22;23398;50.928;7.084;2022-12-11T05:29:34;6.00;74.00
37560;DHT22;23398;50.928;7.084;2022-12-11T05:32:00;6.00;73.90
37560;DHT22;23398;50.928;7.084;2022-12-11T05:34:26;6.00;73.90
37560;DHT22;23398;50.928;7.084;2022-12-11T05:36:51;6.00;74.00
37560;DHT22;23398;50.928;7.084;2022-12-11T05:39:17;6.00;74.20
37560;DHT22;23398;50.928;7.084;2022-12-11T05:41:43;6.00;74.20
37560;DHT22;23398;50.928;7.084;2022-12-11T05:44:11;6.00;74.20
37560;DHT22;23398;50.928;7.084;2022-12-11T05:46:37;6.00;74.20
37560;DHT22;23398;50.928;7.084;2022-12-11T05:49:03;6.00;74.50
37560;DHT22;23398;50.928;7.084;2022-12-11T05:51:29;6.00;74.70
37560;DHT22;23398;50.928;7.084;2022-12-11T05:53:55;6.00;74.80
37560;DHT22;23398;50.928;7.084;2022-12-11T05:56:24;6.00;74.70
37560;DHT22;23398;50.928;7.084;2022-12-11T05:58:51;5.90;74.60
37560;DHT22;23398;50.928;7.084;2022-12-11T06:03:47;5.90;74.60
37560;DHT22;23398;50.928;7.084;2022-12-11T06:06:13;5.90;74.50
37560;DHT22;23398;50.928;7.084;2022-12-11T06:08:39;5.90;74.60
37560;DHT22;23398;50.928;7.084;2022-12-11T06:11:05;5.90;74.80
37560;DHT22;23398;50.928;7.084;2022-12-11T06:13:31;5.90;75.00
37560;DHT22;23398;50.928;7.084;2022-12-11T06:16:00;5.90;74.90
37560;DHT22;23398;50.928;7.084;2022-12-11T06:18:27;5.90;74.90
37560;DHT22;23398;50.928;7.084;2022-12-11T06:20:52;5.90;75.10
37560;DHT22;23398;50.928;7.084;2022-12-11T06:23:18;5.90;75.00
37560;DHT22;23398;50.928;7.084;2022-12-11T06:25:44;5.90;75.00
37560;DHT22;23398;50.928;7.084;2022-12-11T06:28:10;5.90;74.90
37560;DHT22;23398;50.928;7.084;2022-12-11T06:30:36;5.90;74.70
37560;DHT22;23398;50.928;7.084;2022-12-11T06:33:01;5.90;74.50
37560;DHT22;23398;50.928;7.084;2022-12-11T06:35:27;5.90;74.60
37560;DHT22;23398;50.928;7.084;2022-12-11T06:37:53;5.90;74.60
37560;DHT22;23398;50.928;7.084;2022-12-11T06:40:18;5.90;74.60
37560;DHT22;23398;50.928;7.084;2022-12-11T06:42:44;5.90;74.70
37560;DHT22;23398;50.928;7.084;2022-12-11T06:45:10;5.80;74.80
37560;DHT22;23398;50.928;7.084;2022-12-11T06:47:35;5.90;75.10
37560;DHT22;23398;50.928;7.084;2022-12-11T06:50:01;5.90;75.10
37560;DHT22;23398;50.928;7.084;2022-12-11T06:52:27;5.80;75.00
37560;DHT22;23398;50.928;7.084;2022-12-11T06:54:53;5.80;74.90
37560;DHT22;23398;50.928;7.084;2022-12-11T06:57:19;5.80;74.90
37560;DHT22;23398;50.928;7.084;2022-12-11T06:59:45;5.80;74.80
37560;DHT22;23398;50.928;7.084;2022-12-11T07:02:15;5.80;74.90
37560;DHT22;23398;50.928;7.084;2022-12-11T07:04:41;5.80;74.90
37560;DHT22;23398;50.928;7.084;2022-12-11T07:07:07;5.80;75.00
37560;DHT22;23398;50.928;7.084;2022-12-11T07:09:34;5.80;74.90
37560;DHT22;23398;50.928;7.084;2022-12-11T07:11:59;5.80;74.90
37560;DHT22;23398;50.928;7.084;2022-12-11T07:14:25;5.80;75.00
37560;DHT22;23398;50.928;7.084;2022-12-11T07:16:50;5.70;75.00
37560;DHT22;23398;50.928;7.084;2022-12-11T07:19:16;5.80;75.20
37560;DHT22;23398;50.928;7.084;2022-12-11T07:21:42;5.70;75.20
37560;DHT22;23398;50.928;7.084;2022-12-11T07:24:08;5.70;75.40
37560;DHT22;23398;50.928;7.084;2022-12-11T07:26:34;5.70;75.70
37560;DHT22;23398;50.928;7.084;2022-12-11T07:29:00;5.70;75.90
37560;DHT22;23398;50.928;7.084;2022-12-11T07:31:27;5.70;75.70
37560;DHT22;23398;50.928;7.084;2022-12-11T07:33:57;5.70;75.70
37560;DHT22;23398;50.928;7.084;2022-12-11T07:36:23;5.70;75.60
37560;DHT22;23398;50.928;7.084;2022-12-11T07:38:49;5.70;75.50
37560;DHT22;23398;50.928;7.084;2022-12-11T07:41:15;5.70;75.60
37560;DHT22;23398;50.928;7.084;2022-12-11T07:43:42;5.70;75.60
37560;DHT22;23398;50.928;7.084;2022-12-11T07:46:27;5.70;75.70
37560;DHT22;23398;50.928;7.084;2022-12-11T07:48:53;5.70;75.80
37560;DHT22;23398;50.928;7.084;2022-12-11T07:51:30;5.70;75.80
37560;DHT22;23398;50.928;7.084;2022-12-11T07:54:01;5.70;76.10
37560;DHT22;23398;50.928;7.084;2022-12-11T07:56:28;5.70;76.00
37560;DHT22;23398;50.928;7.084;2022-12-11T07:58:54;5.70;75.90
37560;DHT22;23398;50.928;7.084;2022-12-11T08:01:23;5.70;75.80
37560;DHT22;23398;50.928;7.084;2022-12-11T08:03:50;5.70;76.50
37560;DHT22;23398;50.928;7.084;2022-12-11T08:06:16;5.70;75.80
37560;DHT22;23398;50.928;7.084;2022-12-11T08:08:42;5.70;75.90
37560;DHT22;23398;50.928;7.084;2022-12-11T08:11:11;5.70;76.00
37560;DHT22;23398;50.928;7.084;2022-12-11T08:13:37;5.70;76.10
37560;DHT22;23398;50.928;7.084;2022-12-11T08:16:06;5.70;76.30
37560;DHT22;23398;50.928;7.084;2022-12-11T08:18:33;5.70;76.10
37560;DHT22;23398;50.928;7.084;2022-12-11T08:21:03;5.70;76.00
37560;DHT22;23398;50.928;7.084;2022-12-11T08:23:28;5.80;76.00
37560;DHT22;23398;50.928;7.084;2022-12-11T08:25:54;5.80;75.90
37560;DHT22;23398;50.928;7.084;2022-12-11T08:28:19;5.70;75.70
37560;DHT22;23398;50.928;7.084;2022-12-11T08:30:46;5.70;75.90
37560;DHT22;23398;50.928;7.084;2022-12-11T08:33:11;5.70;76.00
37560;DHT22;23398;50.928;7.084;2022-12-11T08:35:38;5.80;76.20
37560;DHT22;23398;50.928;7.084;2022-12-11T08:38:04;5.80;76.30
37560;DHT22;23398;50.928;7.084;2022-12-11T08:40:29;5.80;76.20
37560;DHT22;23398;50.928;7.084;2022-12-11T08:42:55;5.80;76.20
37560;DHT22;23398;50.928;7.084;2022-12-11T08:45:20;5.80;76.20
37560;DHT22;23398;50.928;7.084;2022-12-11T08:47:46;5.80;76.10
37560;DHT22;23398;50.928;7.084;2022-12-11T08:50:11;5.90;76.20
37560;DHT22;23398;50.928;7.084;2022-12-11T08:52:37;5.90;76.10
37560;DHT22;23398;50.928;7.084;2022-12-11T08:55:03;5.90;76.10
37560;DHT22;23398;50.928;7.084;2022-12-11T08:57:29;5.90;76.00
37560;DHT22;23398;50.928;7.084;2022-12-11T08:59:54;5.90;76.00
37560;DHT22;23398;50.928;7.084;2022-12-11T09:02:20;6.00;76.10
37560;DHT22;23398;50.928;7.084;2022-12-11T09:04:45;6.00;76.00
37560;DHT22;23398;50.928;7.084;2022-12-11T09:07:11;6.00;76.10
37560;DHT22;23398;50.928;7.084;2022-12-11T09:09:37;6.00;76.30
37560;DHT22;23398;50.928;7.084;2022-12-11T09:12:03;6.10;76.40
37560;DHT22;23398;50.928;7.084;2022-12-11T09:14:29;6.10;76.30
37560;DHT22;23398;50.928;7.084;2022-12-11T09:16:55;6.10;75.90
37560;DHT22;23398;50.928;7.084;2022-12-11T09:19:20;6.20;75.70
37560;DHT22;23398;50.928;7.084;2022-12-11T09:21:46;6.20;75.40
37560;DHT22;23398;50.928;7.084;2022-12-11T09:24:12;6.20;75.30
37560;DHT22;23398;50.928;7.084;2022-12-11T09:26:38;6.20;75.20
37560;DHT22;23398;50.928;7.084;2022-12-11T09:29:05;6.20;75.00
37560;DHT22;23398;50.928;7.084;2022-12-11T09:31:33;6.20;75.10
37560;DHT22;23398;50.928;7.084;2022-12-11T09:34:04;6.20;75.20
37560;DHT22;23398;50.928;7.084;2022-12-11T09:36:31;6.20;75.30
37560;DHT22;23398;50.928;7.084;2022-12-11T09:39:01;6.20;75.30
37560;DHT22;23398;50.928;7.084;2022-12-11T09:44:22;6.20;74.80
37560;DHT22;23398;50.928;7.084;2022-12-11T09:46:50;6.20;74.80
37560;DHT22;23398;50.928;7.084;2022-12-11T09:49:35;6.20;75.10
37560;DHT22;23398;50.928;7.084;2022-12-11T09:52:22;6.20;75.40
37560;DHT22;23398;50.928;7.084;2022-12-11T09:54:59;6.20;75.40
37560;DHT22;23398;50.928;7.084;2022-12-11T10:03:21;6.30;74.80
37560;DHT22;23398;50.928;7.084;2022-12-11T10:05:58;6.30;74.70
37560;DHT22;23398;50.928;7.084;2022-12-11T10:08:35;6.30;74.90
37560;DHT22;23398;50.928;7.084;2022-12-11T10:16:43;6.30;74.20
37560;DHT22;23398;50.928;7.084;2022-12-11T10:19:19;6.30;74.10
37560;DHT22;23398;50.928;7.084;2022-12-11T10:21:46;6.40;74.00
37560;DHT22;23398;50.928;7.084;2022-12-11T10:27:14;6.40;73.90
37560;DHT22;23398;50.928;7.084;2022-12-11T10:29:41;6.40;74.10
37560;DHT22;23398;50.928;7.084;2022-12-11T10:32:19;6.40;74.30
37560;DHT22;23398;50.928;7.084;2022-12-11T10:34:47;6.40;74.10
37560;DHT22;23398;50.928;7.084;2022-12-11T10:37:15;6.40;73.90
37560;DHT22;23398;50.928;7.084;2022-12-11T10:39:41;6.40;73.90
37560;DHT22;23398;50.928;7.084;2022-12-11T10:42:17;6.40;73.80
37560;DHT22;23398;50.928;7.084;2022-12-11T10:44:55;6.50;73.80
37560;DHT22;23398;50.928;7.084;2022-12-11T10:47:20;6.50;73.90
37560;DHT22;23398;50.928;7.084;2022-12-11T10:49:58;6.50;73.90
37560;DHT22;23398;50.928;7.084;2022-12-11T10:52:31;6.60;74.30
37560;DHT22;23398;50.928;7.084;2022-12-11T10:55:06;6.60;73.50
37560;DHT22;23398;50.928;7.084;2022-12-11T10:57:42;6.60;73.30
37560;DHT22;23398;50.928;7.084;2022-12-11T11:02:57;6.70;73.10
37560;DHT22;23398;50.928;7.084;2022-12-11T11:05:32;7.40;74.10
37560;DHT22;23398;50.928;7.084;2022-12-11T11:08:17;6.80;73.20
37560;DHT22;23398;50.928;7.084;2022-12-11T11:11:00;6.80;72.90
37560;DHT22;23398;50.928;7.084;2022-12-11T11:13:27;6.90;72.90
37560;DHT22;23398;50.928;7.084;2022-12-11T11:16:07;6.90;73.00
37560;DHT22;23398;50.928;7.084;2022-12-11T11:18:37;7.00;72.90
37560;DHT22;23398;50.928;7.084;2022-12-11T11:21:04;7.00;73.10
37560;DHT22;23398;50.928;7.084;2022-12-11T11:23:30;7.10;73.10
37560;DHT22;23398;50.928;7.084;2022-12-11T11:25:58;7.10;72.90
37560;DHT22;23398;50.928;7.084;2022-12-11T11:28:28;7.10;72.80
37560;DHT22;23398;50.928;7.084;2022-12-11T11:31:01;7.20;72.90
37560;DHT22;23398;50.928;7.084;2022-12-11T11:33:28;7.20;72.50
37560;DHT22;23398;50.928;7.084;2022-12-11T11:35:57;7.30;73.10
37560;DHT22;23398;50.928;7.084;2022-12-11T11:38:36;7.30;71.70
37560;DHT22;23398;50.928;7.084;2022-12-11T11:43:59;7.40;71.10
37560;DHT22;23398;50.928;7.084;2022-12-11T11:46:33;7.50;71.20
37560;DHT22;23398;50.928;7.084;2022-12-11T11:51:45;7.60;71.00
37560;DHT22;23398;50.928;7.084;2022-12-11T11:54:42;7.70;70.80
37560;DHT22;23398;50.928;7.084;2022-12-11T12:00:06;7.80;69.60
37560;DHT22;23398;50.928;7.084;2022-12-11T12:02:40;7.90;69.60
37560;DHT22;23398;50.928;7.084;2022-12-11T12:05:12;7.90;69.30
37560;DHT22;23398;50.928;7.084;2022-12-11T12:10:14;8.00;69.00
37560;DHT22;23398;50.928;7.084;2022-12-11T12:12:57;7.90;66.90
37560;DHT22;23398;50.928;7.084;2022-12-11T12:15:28;7.90;67.90
37560;DHT22;23398;50.928;7.084;2022-12-11T12:18:14;7.90;68.20
37560;DHT22;23398;50.928;7.084;2022-12-11T12:21:03;8.00;67.80
37560;DHT22;23398;50.928;7.084;2022-12-11T12:23:52;8.00;67.60
37560;DHT22;23398;50.928;7.084;2022-12-11T12:26:37;8.10;67.70
37560;DHT22;23398;50.928;7.084;2022-12-11T12:37:26;8.00;67.40
37560;DHT22;23398;50.928;7.084;2022-12-11T12:40:28;8.00;67.50
37560;DHT22;23398;50.928;7.084;2022-12-11T12:43:22;7.90;67.10
37560;DHT22;23398;50.928;7.084;2022-12-11T12:48:33;7.80;67.10
37560;DHT22;23398;50.928;7.084;2022-12-11T12:50:59;7.80;67.70
37560;DHT22;23398;50.928;7.084;2022-12-11T12:53:28;7.70;67.70
37560;DHT22;23398;50.928;7.084;2022-12-11T12:55:57;7.70;68.10
37560;DHT22;23398;50.928;7.084;2022-12-11T12:58:41;7.70;68.10
37560;DHT22;23398;50.928;7.084;2022-12-11T13:04:00;7.70;68.10
37560;DHT22;23398;50.928;7.084;2022-12-11T13:06:45;7.70;68.00
37560;DHT22;23398;50.928;7.084;2022-12-11T13:09:20;7.80;68.00
37560;DHT22;23398;50.928;7.084;2022-12-11T13:11:47;7.70;68.00
37560;DHT22;23398;50.928;7.084;2022-12-11T13:16:47;7.70;67.60
37560;DHT22;23398;50.928;7.084;2022-12-11T13:19:33;7.70;67.30
37560;DHT22;23398;50.928;7.084;2022-12-11T13:24:58;7.60;66.60
37560;DHT22;23398;50.928;7.084;2022-12-11T13:33:25;7.50;66.80
37560;DHT22;23398;50.928;7.084;2022-12-11T13:36:28;7.40;66.70
37560;DHT22;23398;50.928;7.084;2022-12-11T13:38:59;7.40;66.70
37560;DHT22;23398;50.928;7.084;2022-12-11T13:41:26;7.40;67.00
37560;DHT22;23398;50.928;7.084;2022-12-11T13:43:52;7.40;66.90
37560;DHT22;23398;50.928;7.084;2022-12-11T13:46:28;7.30;66.80
37560;DHT22;23398;50.928;7.084;2022-12-11T13:49:00;7.30;66.70
37560;DHT22;23398;50.928;7.084;2022-12-11T13:51:29;7.30;66.90
37560;DHT22;23398;50.928;7.084;2022-12-11T13:54:11;7.20;66.90
37560;DHT22;23398;50.928;7.084;2022-12-11T13:56:38;7.20;66.80
37560;DHT22;23398;50.928;7.084;2022-12-11T13:59:03;7.20;67.20
37560;DHT22;23398;50.928;7.084;2022-12-11T14:01:33;7.10;67.30
37560;DHT22;23398;50.928;7.084;2022-12-11T14:04:08;7.10;67.50
37560;DHT22;23398;50.928;7.084;2022-12-11T14:06:37;7.10;67.70
37560;DHT22;23398;50.928;7.084;2022-12-11T14:09:04;7.10;67.90
37560;DHT22;23398;50.928;7.084;2022-12-11T14:11:37;7.10;67.90
37560;DHT22;23398;50.928;7.084;2022-12-11T14:14:06;7.10;67.80
37560;DHT22;23398;50.928;7.084;2022-12-11T14:16:33;7.10;67.80
37560;DHT22;23398;50.928;7.084;2022-12-11T14:19:03;7.00;67.50
37560;DHT22;23398;50.928;7.084;2022-12-11T14:21:29;7.00;67.30
37560;DHT22;23398;50.928;7.084;2022-12-11T14:23:57;7.00;67.30
37560;DHT22;23398;50.928;7.084;2022-12-11T14:26:28;7.00;67.40
37560;DHT22;23398;50.928;7.084;2022-12-11T14:28:54;7.00;67.70
37560;DHT22;23398;50.928;7.084;2022-12-11T14:31:41;7.40;68.30
37560;DHT22;23398;50.928;7.084;2022-12-11T14:34:17;7.00;67.60
37560;DHT22;23398;50.928;7.084;2022-12-11T14:36:45;7.00;67.80
37560;DHT22;23398;50.928;7.084;2022-12-11T14:42:10;7.00;67.70
37560;DHT22;23398;50.928;7.084;2022-12-11T14:44:49;6.90;67.60
37560;DHT22;23398;50.928;7.084;2022-12-11T14:47:24;6.90;67.80
37560;DHT22;23398;50.928;7.084;2022-12-11T14:49:58;6.90;67.70
37560;DHT22;23398;50.928;7.084;2022-12-11T14:52:31;6.90;67.60
37560;DHT22;23398;50.928;7.084;2022-12-11T14:57:33;6.90;67.50
37560;DHT22;23398;50.928;7.084;2022-12-11T15:00:00;6.80;67.60
37560;DHT22;23398;50.928;7.084;2022-12-11T15:02:31;6.80;67.80
37560;DHT22;23398;50.928;7.084;2022-12-11T15:05:18;6.80;67.70
37560;DHT22;23398;50.928;7.084;2022-12-11T15:08:01;7.50;68.30
37560;DHT22;23398;50.928;7.084;2022-12-11T15:10:34;6.80;67.50
37560;DHT22;23398;50.928;7.084;2022-12-11T15:13:02;6.70;67.50
37560;DHT22;23398;50.928;7.084;2022-12-11T15:15:31;6.70;67.60
37560;DHT22;23398;50.928;7.084;2022-12-11T15:18:05;6.70;67.70
37560;DHT22;23398;50.928;7.084;2022-12-11T15:20:32;6.60;67.80
37560;DHT22;23398;50.928;7.084;2022-12-11T15:22:59;6.60;68.00
37560;DHT22;23398;50.928;7.084;2022-12-11T15:25:27;6.60;68.00
37560;DHT22;23398;50.928;7.084;2022-12-11T15:27:57;6.60;68.20
37560;DHT22;23398;50.928;7.084;2022-12-11T15:30:26;6.60;68.50
37560;DHT22;23398;50.928;7.084;2022-12-11T15:35:38;6.60;69.00
37560;DHT22;23398;50.928;7.084;2022-12-11T15:38:04;6.60;69.10
37560;DHT22;23398;50.928;7.084;2022-12-11T15:40:30;6.50;69.10
37560;DHT22;23398;50.928;7.084;2022-12-11T15:42:56;6.50;69.10
37560;DHT22;23398;50.928;7.084;2022-12-11T15:45:26;6.50;69.20
37560;DHT22;23398;50.928;7.084;2022-12-11T15:47:55;6.50;69.90
37560;DHT22;23398;50.928;7.084;2022-12-11T15:50:25;6.60;69.40
37560;DHT22;23398;50.928;7.084;2022-12-11T15:52:52;6.50;69.10
37560;DHT22;23398;50.928;7.084;2022-12-11T15:55:19;6.50;68.90
37560;DHT22;23398;50.928;7.084;2022-12-11T15:57:48;6.50;68.80
37560;DHT22;23398;50.928;7.084;2022-12-11T16:00:16;6.50;68.80
37560;DHT22;23398;50.928;7.084;2022-12-11T16:02:43;6.50;68.70
37560;DHT22;23398;50.928;7.084;2022-12-11T16:05:08;6.50;68.70
37560;DHT22;23398;50.928;7.084;2022-12-11T16:07:34;6.50;68.90
37560;DHT22;23398;50.928;7.084;2022-12-11T16:10:00;6.50;69.10
37560;DHT22;23398;50.928;7.084;2022-12-11T16:12:25;6.50;69.00
37560;DHT22;23398;50.928;7.084;2022-12-11T16:14:51;6.50;69.00
37560;DHT22;23398;50.928;7.084;2022-12-11T16:17:16;6.40;69.80
37560;DHT22;23398;50.928;7.084;2022-12-11T16:19:42;6.40;69.10
37560;DHT22;23398;50.928;7.084;2022-12-11T16:22:10;6.50;69.10
37560;DHT22;23398;50.928;7.084;2022-12-11T16:24:37;6.40;68.90
37560;DHT22;23398;50.928;7.084;2022-12-11T16:27:03;6.40;69.10
37560;DHT22;23398;50.928;7.084;2022-12-11T16:29:33;6.40;69.00
37560;DHT22;23398;50.928;7.084;2022-12-11T16:31:59;6.40;68.90
37560;DHT22;23398;50.928;7.084;2022-12-11T16:34:25;6.40;69.00
37560;DHT22;23398;50.928;7.084;2022-12-11T16:36:52;6.40;69.00
37560;DHT22;23398;50.928;7.084;2022-12-11T16:39:20;6.40;68.90
37560;DHT22;23398;50.928;7.084;2022-12-11T16:41:46;6.40;68.80
37560;DHT22;23398;50.928;7.084;2022-12-11T16:44:12;6.30;68.70
37560;DHT22;23398;50.928;7.084;2022-12-11T16:46:37;6.30;68.70
37560;DHT22;23398;50.928;7.084;2022-12-11T16:49:03;6.30;68.90
37560;DHT22;23398;50.928;7.084;2022-12-11T16:51:29;6.30;69.00
37560;DHT22;23398;50.928;7.084;2022-12-11T16:53:54;6.30;69.00
37560;DHT22;23398;50.928;7.084;2022-12-11T16:56:20;6.30;69.10
37560;DHT22;23398;50.928;7.084;2022-12-11T16:58:46;6.20;69.90
37560;DHT22;23398;50.928;7.084;2022-12-11T17:01:14;6.20;69.20
37560;DHT22;23398;50.928;7.084;2022-12-11T17:03:41;6.20;69.20
37560;DHT22;23398;50.928;7.084;2022-12-11T17:06:09;6.20;69.20
37560;DHT22;23398;50.928;7.084;2022-12-11T17:08:35;6.20;69.20
37560;DHT22;23398;50.928;7.084;2022-12-11T17:11:09;6.20;69.30
37560;DHT22;23398;50.928;7.084;2022-12-11T17:13:35;6.20;69.30
37560;DHT22;23398;50.928;7.084;2022-12-11T17:16:06;6.20;69.30
37560;DHT22;23398;50.928;7.084;2022-12-11T17:18:32;6.20;69.40
37560;DHT22;23398;50.928;7.084;2022-12-11T17:20:58;6.20;69.50
37560;DHT22;23398;50.928;7.084;2022-12-11T17:23:24;6.10;69.40